SBMQ/MCP METAR and TAF weather

Enter ICAO airport designator
Station Type Date Time Source
SBMQ METAR 2020/11/25 22:00 UTC NOAA

SBMQ 252200Z 04007KT 9999 FEW017 SCT100 29/25 Q1009


Station Type Date Time Source
SBMQ Decoded METAR 2020/11/25 22:00 UTC NOAA

Macapa, Brazil (SBMQ) 00-02N 050-03W
Nov 25, 2020 - 05:00 PM EST / 2020.11.25 2200 UTC
Wind: from the NE (040 degrees) at 8 MPH (7 KT):0
Visibility: greater than 7 mile(s):0
Sky conditions: partly cloudy
Temperature: 84 F (29 C)
Dew Point: 77 F (25 C)
Relative Humidity: 79%
Pressure (altimeter): 29.80 in. Hg (1009 hPa)
ob: SBMQ 252200Z 04007KT 9999 FEW017 SCT100 29/25 Q1009
cycle: 22

Station Type Date Time Source
SBMQ TAF 2020/11/25 18:23 UTC NOAA

TAF SBMQ 251600Z 2518/2618 06008KT 8000 SCT020 FEW025TCU TN25/2609Z TX33/2616Z PROB40 2519/2521 7000 TS SCT020 FEW025CB
BECMG 2522/2524 36005KT SCT015
BECMG 2602/2605 30005KT
BECMG 2610/2613 06008KT SCT020
BECMG 2615/2617 SCT020 FEW025TCU
RMK PHC

Example: see airport list